sensor_id;sensor_type;location;lat;lon;timestamp;pressure;altitude;pressure_sealevel;temperature;humidity
21760;BME280;11041;50.854;20.580;2022-11-27T00:01:30;100041.19;;;-0.27;93.96
21760;BME280;11041;50.854;20.580;2022-11-27T00:03:57;100033.53;;;-0.37;93.80
21760;BME280;11041;50.854;20.580;2022-11-27T00:06:27;100040.81;;;-0.37;94.21
21760;BME280;11041;50.854;20.580;2022-11-27T00:08:59;100038.72;;;-0.35;94.13
21760;BME280;11041;50.854;20.580;2022-11-27T00:11:28;100033.13;;;-0.40;94.05
21760;BME280;11041;50.854;20.580;2022-11-27T00:13:56;100040.81;;;-0.37;94.19
21760;BME280;11041;50.854;20.580;2022-11-27T00:16:25;100037.69;;;-0.41;94.12
21760;BME280;11041;50.854;20.580;2022-11-27T00:18:52;100042.47;;;-0.36;94.37
21760;BME280;11041;50.854;20.580;2022-11-27T00:21:28;100039.38;;;-0.40;94.49
21760;BME280;11041;50.854;20.580;2022-11-27T00:23:57;100044.34;;;-0.37;94.47
21760;BME280;11041;50.854;20.580;2022-11-27T00:26:26;100048.72;;;-0.36;94.44
21760;BME280;11041;50.854;20.580;2022-11-27T00:28:52;100052.41;;;-0.30;94.30
21760;BME280;11041;50.854;20.580;2022-11-27T00:31:31;100047.66;;;-0.28;93.94
21760;BME280;11041;50.854;20.580;2022-11-27T00:34:04;100050.13;;;-0.27;93.53
21760;BME280;11041;50.854;20.580;2022-11-27T00:36:33;100038.28;;;-0.32;93.35
21760;BME280;11041;50.854;20.580;2022-11-27T00:39:00;100038.50;;;-0.34;94.09
21760;BME280;11041;50.854;20.580;2022-11-27T00:41:29;100041.00;;;-0.32;93.74
21760;BME280;11041;50.854;20.580;2022-11-27T00:43:56;100038.50;;;-0.34;94.07
21760;BME280;11041;50.854;20.580;2022-11-27T00:46:27;100040.19;;;-0.39;94.57
21760;BME280;11041;50.854;20.580;2022-11-27T00:48:56;100047.66;;;-0.35;94.33
21760;BME280;11041;50.854;20.580;2022-11-27T00:51:24;100039.75;;;-0.36;94.37
21760;BME280;11041;50.854;20.580;2022-11-27T00:53:52;100044.97;;;-0.35;94.17
21760;BME280;11041;50.854;20.580;2022-11-27T00:56:27;100040.81;;;-0.37;94.07
21760;BME280;11041;50.854;20.580;2022-11-27T00:58:55;100039.97;;;-0.38;94.23
21760;BME280;11041;50.854;20.580;2022-11-27T01:01:27;100041.88;;;-0.38;94.42
21760;BME280;11041;50.854;20.580;2022-11-27T01:03:56;100047.03;;;-0.37;94.65
21760;BME280;11041;50.854;20.580;2022-11-27T01:06:23;100045.78;;;-0.34;94.90
21760;BME280;11041;50.854;20.580;2022-11-27T01:08:51;100045.59;;;-0.39;94.61
21760;BME280;11041;50.854;20.580;2022-11-27T01:11:23;100042.69;;;-0.38;94.52
21760;BME280;11041;50.854;20.580;2022-11-27T01:14:00;100032.72;;;-0.37;94.48
21760;BME280;11041;50.854;20.580;2022-11-27T01:16:29;100044.94;;;-0.28;93.97
21760;BME280;11041;50.854;20.580;2022-11-27T01:18:58;100055.31;;;-0.32;93.77
21760;BME280;11041;50.854;20.580;2022-11-27T01:21:29;100051.81;;;-0.32;94.16
21760;BME280;11041;50.854;20.580;2022-11-27T01:23:58;100047.44;;;-0.33;93.77
21760;BME280;11041;50.854;20.580;2022-11-27T01:26:26;100052.66;;;-0.38;94.19
21760;BME280;11041;50.854;20.580;2022-11-27T01:28:55;100053.06;;;-0.35;93.81
21760;BME280;11041;50.854;20.580;2022-11-27T01:31:27;100062.41;;;-0.37;94.29
21760;BME280;11041;50.854;20.580;2022-11-27T01:33:57;100046.41;;;-0.39;94.03
21760;BME280;11041;50.854;20.580;2022-11-27T01:36:25;100045.78;;;-0.41;94.08
21760;BME280;11041;50.854;20.580;2022-11-27T01:38:52;100041.88;;;-0.38;94.45
21760;BME280;11041;50.854;20.580;2022-11-27T01:41:24;100058.47;;;-0.35;94.43
21760;BME280;11041;50.854;20.580;2022-11-27T01:43:56;100050.78;;;-0.38;94.29
21760;BME280;11041;50.854;20.580;2022-11-27T01:46:37;100055.97;;;-0.36;94.07
21760;BME280;11041;50.854;20.580;2022-11-27T01:51:48;100064.91;;;-0.36;93.93
21760;BME280;11041;50.854;20.580;2022-11-27T01:54:19;100051.41;;;-0.43;93.91
21760;BME280;11041;50.854;20.580;2022-11-27T01:56:52;100051.84;;;-0.46;94.26
21760;BME280;11041;50.854;20.580;2022-11-27T01:59:22;100056.41;;;-0.46;94.37
21760;BME280;11041;50.854;20.580;2022-11-27T02:01:49;100041.06;;;-0.52;94.56
21760;BME280;11041;50.854;20.580;2022-11-27T02:04:17;100052.06;;;-0.47;94.73
21760;BME280;11041;50.854;20.580;2022-11-27T02:06:45;100044.78;;;-0.47;94.40
21760;BME280;11041;50.854;20.580;2022-11-27T02:09:12;100043.94;;;-0.47;94.54
21760;BME280;11041;50.854;20.580;2022-11-27T02:15:29;100059.72;;;-0.37;94.19
21760;BME280;11041;50.854;20.580;2022-11-27T02:17:58;100047.66;;;-0.41;94.19
21760;BME280;11041;50.854;20.580;2022-11-27T02:21:00;100050.38;;;-0.41;94.47
21760;BME280;11041;50.854;20.580;2022-11-27T02:23:53;100064.50;;;-0.39;94.63
21760;BME280;11041;50.854;20.580;2022-11-27T02:29:21;100053.06;;;-0.41;94.34
21760;BME280;11041;50.854;20.580;2022-11-27T02:32:12;100053.50;;;-0.38;94.53
21760;BME280;11041;50.854;20.580;2022-11-27T02:35:08;100058.03;;;-0.32;94.45
21760;BME280;11041;50.854;20.580;2022-11-27T02:38:13;100051.38;;;-0.29;94.32
21760;BME280;11041;50.854;20.580;2022-11-27T02:40:54;100064.25;;;-0.25;94.80
21760;BME280;11041;50.854;20.580;2022-11-27T02:43:38;100060.91;;;-0.20;94.32
21760;BME280;11041;50.854;20.580;2022-11-27T02:46:10;100071.72;;;-0.20;93.83
21760;BME280;11041;50.854;20.580;2022-11-27T02:49:06;100073.38;;;-0.19;94.50
21760;BME280;11041;50.854;20.580;2022-11-27T02:51:48;100075.84;;;-0.17;94.47
21760;BME280;11041;50.854;20.580;2022-11-27T02:54:25;100079.63;;;-0.18;94.31
21760;BME280;11041;50.854;20.580;2022-11-27T02:56:56;100072.53;;;-0.19;93.85
21760;BME280;11041;50.854;20.580;2022-11-27T02:59:29;100073.97;;;-0.17;93.90
21760;BME280;11041;50.854;20.580;2022-11-27T03:02:06;100070.88;;;-0.20;94.05
21760;BME280;11041;50.854;20.580;2022-11-27T03:04:49;100090.00;;;-0.15;94.13
21760;BME280;11041;50.854;20.580;2022-11-27T03:07:30;100072.34;;;-0.18;93.81
21760;BME280;11041;50.854;20.580;2022-11-27T03:10:08;100085.41;;;-0.15;93.91
21760;BME280;11041;50.854;20.580;2022-11-27T03:12:38;100079.38;;;-0.17;93.73
21760;BME280;11041;50.854;20.580;2022-11-27T03:15:06;100078.78;;;-0.19;93.50
21760;BME280;11041;50.854;20.580;2022-11-27T03:17:54;100080.03;;;-0.22;93.68
21760;BME280;11041;50.854;20.580;2022-11-27T03:20:32;100073.41;;;-0.26;93.55
21760;BME280;11041;50.854;20.580;2022-11-27T03:23:02;100086.47;;;-0.23;94.14
21760;BME280;11041;50.854;20.580;2022-11-27T03:25:28;100091.25;;;-0.18;93.77
21760;BME280;11041;50.854;20.580;2022-11-27T03:28:03;100087.09;;;-0.20;93.91
21760;BME280;11041;50.854;20.580;2022-11-27T03:30:31;100081.69;;;-0.27;93.77
21760;BME280;11041;50.854;20.580;2022-11-27T03:32:58;100092.94;;;-0.24;94.50
21760;BME280;11041;50.854;20.580;2022-11-27T03:35:26;100093.94;;;-0.25;94.62
21760;BME280;11041;50.854;20.580;2022-11-27T03:37:54;100086.66;;;-0.24;94.60
21760;BME280;11041;50.854;20.580;2022-11-27T03:40:35;100085.84;;;-0.25;94.51
21760;BME280;11041;50.854;20.580;2022-11-27T03:43:18;100090.41;;;-0.18;94.75
21760;BME280;11041;50.854;20.580;2022-11-27T03:46:14;100094.38;;;-0.14;94.34
21760;BME280;11041;50.854;20.580;2022-11-27T03:49:00;100086.66;;;-0.11;94.26
21760;BME280;11041;50.854;20.580;2022-11-27T03:51:42;100092.47;;;-0.07;94.46
21760;BME280;11041;50.854;20.580;2022-11-27T03:54:50;100088.50;;;-0.05;94.36
21760;BME280;11041;50.854;20.580;2022-11-27T03:57:28;100087.25;;;-0.02;94.54
21760;BME280;11041;50.854;20.580;2022-11-27T04:00:05;100079.56;;;-0.05;94.56
21760;BME280;11041;50.854;20.580;2022-11-27T04:02:44;100081.84;;;-0.02;93.93
21760;BME280;11041;50.854;20.580;2022-11-27T04:05:13;100071.88;;;-0.02;94.58
21760;BME280;11041;50.854;20.580;2022-11-27T04:07:40;100079.97;;;-0.02;94.09
21760;BME280;11041;50.854;20.580;2022-11-27T04:10:10;100082.25;;;0.02;94.19
21760;BME280;11041;50.854;20.580;2022-11-27T04:12:36;100084.13;;;0.01;94.55
21760;BME280;11041;50.854;20.580;2022-11-27T04:15:05;100086.38;;;0.04;94.64
21760;BME280;11041;50.854;20.580;2022-11-27T04:17:33;100084.94;;;0.08;94.70
21760;BME280;11041;50.854;20.580;2022-11-27T04:19:59;100099.06;;;0.10;93.75
21760;BME280;11041;50.854;20.580;2022-11-27T04:22:26;100086.19;;;0.06;94.00
21760;BME280;11041;50.854;20.580;2022-11-27T04:24:52;100083.03;;;0.09;93.99
21760;BME280;11041;50.854;20.580;2022-11-27T04:27:19;100068.28;;;0.05;93.55
21760;BME280;11041;50.854;20.580;2022-11-27T04:29:46;100081.34;;;0.14;94.04
21760;BME280;11041;50.854;20.580;2022-11-27T04:32:12;100082.03;;;0.10;93.51
21760;BME280;11041;50.854;20.580;2022-11-27T04:34:39;100090.94;;;0.10;93.05
21760;BME280;11041;50.854;20.580;2022-11-27T04:37:05;100087.22;;;0.05;93.53
21760;BME280;11041;50.854;20.580;2022-11-27T04:39:32;100082.88;;;0.04;93.78
21760;BME280;11041;50.854;20.580;2022-11-27T04:41:58;100084.75;;;0.03;93.51
21760;BME280;11041;50.854;20.580;2022-11-27T04:44:24;100088.69;;;0.01;93.73
21760;BME280;11041;50.854;20.580;2022-11-27T04:46:51;100085.38;;;0.05;93.99
21760;BME280;11041;50.854;20.580;2022-11-27T04:49:17;100078.06;;;0.06;94.49
21760;BME280;11041;50.854;20.580;2022-11-27T04:51:44;100079.50;;;0.15;94.31
21760;BME280;11041;50.854;20.580;2022-11-27T04:54:11;100086.13;;;0.19;94.29
21760;BME280;11041;50.854;20.580;2022-11-27T04:56:38;100082.16;;;0.21;94.19
21760;BME280;11041;50.854;20.580;2022-11-27T04:59:04;100074.03;;;0.21;93.96
21760;BME280;11041;50.854;20.580;2022-11-27T05:01:31;100074.28;;;0.20;92.45
21760;BME280;11041;50.854;20.580;2022-11-27T05:03:58;100078.25;;;0.11;92.75
21760;BME280;11041;50.854;20.580;2022-11-27T05:06:24;100070.16;;;0.04;93.58
21760;BME280;11041;50.854;20.580;2022-11-27T05:08:53;100074.13;;;0.08;93.66
21760;BME280;11041;50.854;20.580;2022-11-27T05:11:27;100079.31;;;0.10;93.84
21760;BME280;11041;50.854;20.580;2022-11-27T05:13:54;100070.78;;;0.06;93.45
21760;BME280;11041;50.854;20.580;2022-11-27T05:16:59;100069.34;;;0.10;93.55
21760;BME280;11041;50.854;20.580;2022-11-27T05:19:29;100083.66;;;0.17;93.55
21760;BME280;11041;50.854;20.580;2022-11-27T05:21:57;100083.84;;;0.16;93.68
21760;BME280;11041;50.854;20.580;2022-11-27T05:24:27;100083.66;;;0.17;93.42
21760;BME280;11041;50.854;20.580;2022-11-27T05:26:55;100082.81;;;0.17;93.48
21760;BME280;11041;50.854;20.580;2022-11-27T05:29:24;100074.91;;;0.15;93.44
21760;BME280;11041;50.854;20.580;2022-11-27T05:31:51;100087.56;;;0.21;93.75
21760;BME280;11041;50.854;20.580;2022-11-27T05:34:18;100086.97;;;0.19;93.35
21760;BME280;11041;50.854;20.580;2022-11-27T05:36:44;100090.94;;;0.17;93.07
21760;BME280;11041;50.854;20.580;2022-11-27T05:39:11;100083.03;;;0.15;93.45
21760;BME280;11041;50.854;20.580;2022-11-27T05:41:41;100088.22;;;0.17;92.98
21760;BME280;11041;50.854;20.580;2022-11-27T05:44:13;100078.25;;;0.11;93.03
21760;BME280;11041;50.854;20.580;2022-11-27T05:46:41;100077.03;;;0.07;93.32
21760;BME280;11041;50.854;20.580;2022-11-27T05:49:14;100087.81;;;0.13;93.60
21760;BME280;11041;50.854;20.580;2022-11-27T05:51:41;100091.97;;;0.16;93.57
21760;BME280;11041;50.854;20.580;2022-11-27T05:54:09;100077.44;;;0.10;92.83
21760;BME280;11041;50.854;20.580;2022-11-27T05:56:35;100069.97;;;0.06;92.80
21760;BME280;11041;50.854;20.580;2022-11-27T05:59:02;100065.00;;;0.03;92.59
21760;BME280;11041;50.854;20.580;2022-11-27T06:01:29;100079.16;;;-0.09;92.75
21760;BME280;11041;50.854;20.580;2022-11-27T06:03:55;100082.75;;;-0.22;93.53
21760;BME280;11041;50.854;20.580;2022-11-27T06:06:22;100087.72;;;-0.18;94.02
21760;BME280;11041;50.854;20.580;2022-11-27T06:08:48;100097.28;;;-0.23;94.23
21760;BME280;11041;50.854;20.580;2022-11-27T06:11:21;100122.03;;;-0.26;94.92
21760;BME280;11041;50.854;20.580;2022-11-27T06:13:49;100117.88;;;-0.28;94.97
21760;BME280;11041;50.854;20.580;2022-11-27T06:16:21;100101.03;;;-0.24;95.40
21760;BME280;11041;50.854;20.580;2022-11-27T06:18:54;100093.31;;;-0.20;95.79
21760;BME280;11041;50.854;20.580;2022-11-27T06:21:22;100097.66;;;-0.12;95.09
21760;BME280;11041;50.854;20.580;2022-11-27T06:23:53;100095.78;;;-0.05;94.93
21760;BME280;11041;50.854;20.580;2022-11-27T06:26:28;100096.00;;;0.00;95.38
21760;BME280;11041;50.854;20.580;2022-11-27T06:28:57;100079.53;;;0.08;95.09
21760;BME280;11041;50.854;20.580;2022-11-27T06:31:45;100088.00;;;0.18;95.23
21760;BME280;11041;50.854;20.580;2022-11-27T06:34:12;100092.97;;;0.21;94.59
21760;BME280;11041;50.854;20.580;2022-11-27T06:36:39;100093.81;;;0.22;94.66
21760;BME280;11041;50.854;20.580;2022-11-27T06:39:09;100092.13;;;0.28;94.66
21760;BME280;11041;50.854;20.580;2022-11-27T06:41:37;100096.25;;;0.30;94.63
21760;BME280;11041;50.854;20.580;2022-11-27T06:44:04;100098.94;;;0.37;94.45
21760;BME280;11041;50.854;20.580;2022-11-27T06:46:31;100095.41;;;0.36;94.06
21760;BME280;11041;50.854;20.580;2022-11-27T06:48:59;100097.50;;;0.34;93.41
21760;BME280;11041;50.854;20.580;2022-11-27T06:51:29;100097.28;;;0.36;93.57
21760;BME280;11041;50.854;20.580;2022-11-27T06:54:24;100098.31;;;0.41;94.14
21760;BME280;11041;50.854;20.580;2022-11-27T06:56:51;100081.84;;;0.43;94.31
21760;BME280;11041;50.854;20.580;2022-11-27T06:59:18;100081.00;;;0.49;94.13
21760;BME280;11041;50.854;20.580;2022-11-27T07:01:45;100073.50;;;0.51;93.96
21760;BME280;11041;50.854;20.580;2022-11-27T07:04:14;100083.44;;;0.57;93.93
21760;BME280;11041;50.854;20.580;2022-11-27T07:06:41;100078.25;;;0.56;94.00
21760;BME280;11041;50.854;20.580;2022-11-27T07:09:09;100078.03;;;0.57;93.18
21760;BME280;11041;50.854;20.580;2022-11-27T07:11:37;100070.31;;;0.61;93.46
21760;BME280;11041;50.854;20.580;2022-11-27T07:14:05;100077.16;;;0.63;93.70
21760;BME280;11041;50.854;20.580;2022-11-27T07:16:35;100058.84;;;0.66;93.77
21760;BME280;11041;50.854;20.580;2022-11-27T07:19:05;100064.25;;;0.66;93.54
21760;BME280;11041;50.854;20.580;2022-11-27T07:21:32;100067.34;;;0.69;92.68
21760;BME280;11041;50.854;20.580;2022-11-27T07:24:00;100053.84;;;0.62;92.64
21760;BME280;11041;50.854;20.580;2022-11-27T07:26:29;100048.50;;;0.56;92.05
21760;BME280;11041;50.854;20.580;2022-11-27T07:28:56;100063.28;;;0.53;92.31
21760;BME280;11041;50.854;20.580;2022-11-27T07:31:26;100059.97;;;0.51;93.20
21760;BME280;11041;50.854;20.580;2022-11-27T07:33:53;100057.28;;;0.51;93.33
21760;BME280;11041;50.854;20.580;2022-11-27T07:36:29;100065.22;;;0.46;93.29
21760;BME280;11041;50.854;20.580;2022-11-27T07:38:56;100063.13;;;0.48;93.74
21760;BME280;11041;50.854;20.580;2022-11-27T07:41:23;100075.59;;;0.49;93.57
21760;BME280;11041;50.854;20.580;2022-11-27T07:43:50;100079.56;;;0.47;93.58
21760;BME280;11041;50.854;20.580;2022-11-27T07:46:21;100072.06;;;0.49;93.53
21760;BME280;11041;50.854;20.580;2022-11-27T07:48:48;100079.72;;;0.52;93.60
21760;BME280;11041;50.854;20.580;2022-11-27T07:51:19;100080.16;;;0.49;93.49
21760;BME280;11041;50.854;20.580;2022-11-27T07:53:47;100068.53;;;0.48;93.60
21760;BME280;11041;50.854;20.580;2022-11-27T07:56:17;100073.03;;;0.61;92.18
21760;BME280;11041;50.854;20.580;2022-11-27T07:58:45;100086.78;;;0.53;92.88
21760;BME280;11041;50.854;20.580;2022-11-27T08:01:15;100087.50;;;0.41;93.68
21760;BME280;11041;50.854;20.580;2022-11-27T08:03:44;100095.97;;;0.45;94.17
21760;BME280;11041;50.854;20.580;2022-11-27T08:06:21;100095.75;;;0.53;94.29
21760;BME280;11041;50.854;20.580;2022-11-27T08:08:49;100097.84;;;0.51;93.93
21760;BME280;11041;50.854;20.580;2022-11-27T08:11:29;100098.63;;;0.58;94.02
21760;BME280;11041;50.854;20.580;2022-11-27T08:14:01;100098.00;;;0.56;94.09
21760;BME280;11041;50.854;20.580;2022-11-27T08:16:29;100099.41;;;0.66;93.80
21760;BME280;11041;50.854;20.580;2022-11-27T08:18:56;100096.06;;;0.70;94.02
21760;BME280;11041;50.854;20.580;2022-11-27T08:21:24;100086.84;;;0.78;93.24
21760;BME280;11041;50.854;20.580;2022-11-27T08:23:51;100078.75;;;0.78;92.84
21760;BME280;11041;50.854;20.580;2022-11-27T08:26:18;100084.97;;;0.78;92.90
21760;BME280;11041;50.854;20.580;2022-11-27T08:28:46;100084.09;;;0.84;93.25
21760;BME280;11041;50.854;20.580;2022-11-27T08:31:14;100076.00;;;0.84;93.27
21760;BME280;11041;50.854;20.580;2022-11-27T08:33:41;100075.91;;;0.91;93.50
21760;BME280;11041;50.854;20.580;2022-11-27T08:36:08;100082.13;;;0.98;93.56
21760;BME280;11041;50.854;20.580;2022-11-27T08:38:35;100087.72;;;1.03;92.95
21760;BME280;11041;50.854;20.580;2022-11-27T08:41:04;100081.09;;;0.99;92.92
21760;BME280;11041;50.854;20.580;2022-11-27T08:43:31;100074.78;;;1.05;93.15
21760;BME280;11041;50.854;20.580;2022-11-27T08:46:02;100096.19;;;1.14;92.65
21760;BME280;11041;50.854;20.580;2022-11-27T08:48:30;100094.09;;;1.16;92.58
21760;BME280;11041;50.854;20.580;2022-11-27T08:50:56;100095.88;;;1.22;93.04
21760;BME280;11041;50.854;20.580;2022-11-27T08:53:23;100081.75;;;1.20;92.58
21760;BME280;11041;50.854;20.580;2022-11-27T08:55:49;100085.47;;;1.25;91.95
21760;BME280;11041;50.854;20.580;2022-11-27T08:58:16;100090.47;;;1.22;91.79
21760;BME280;11041;50.854;20.580;2022-11-27T09:00:44;100092.53;;;1.26;91.34
21760;BME280;11041;50.854;20.580;2022-11-27T09:03:11;100087.56;;;1.23;91.29
21760;BME280;11041;50.854;20.580;2022-11-27T09:05:41;100094.25;;;1.21;91.87
21760;BME280;11041;50.854;20.580;2022-11-27T09:08:10;100096.13;;;1.20;91.58
21760;BME280;11041;50.854;20.580;2022-11-27T09:10:41;100083.19;;;1.22;91.82
21760;BME280;11041;50.854;20.580;2022-11-27T09:13:08;100086.06;;;1.27;91.88
21760;BME280;11041;50.854;20.580;2022-11-27T09:15:34;100076.47;;;1.25;91.86
21760;BME280;11041;50.854;20.580;2022-11-27T09:18:01;100077.25;;;1.32;91.80
21760;BME280;11041;50.854;20.580;2022-11-27T09:20:28;100080.56;;;1.34;91.76
21760;BME280;11041;50.854;20.580;2022-11-27T09:22:54;100067.44;;;1.38;91.93
21760;BME280;11041;50.854;20.580;2022-11-27T09:25:21;100079.03;;;1.45;92.17
21760;BME280;11041;50.854;20.580;2022-11-27T09:27:49;100079.19;;;1.50;92.04
21760;BME280;11041;50.854;20.580;2022-11-27T09:30:15;100071.88;;;1.51;91.78
21760;BME280;11041;50.854;20.580;2022-11-27T09:32:42;100072.03;;;1.56;90.16
21760;BME280;11041;50.854;20.580;2022-11-27T09:35:08;100074.59;;;1.51;90.43
21760;BME280;11041;50.854;20.580;2022-11-27T09:37:35;100072.09;;;1.49;90.73
21760;BME280;11041;50.854;20.580;2022-11-27T09:40:03;100074.81;;;1.49;90.79
21760;BME280;11041;50.854;20.580;2022-11-27T09:42:58;100073.81;;;1.43;90.69
21760;BME280;11041;50.854;20.580;2022-11-27T09:45:29;100066.16;;;1.40;90.66
21760;BME280;11041;50.854;20.580;2022-11-27T09:48:14;100070.09;;;1.44;91.17
21760;BME280;11041;50.854;20.580;2022-11-27T09:50:49;100063.81;;;1.44;91.45
21760;BME280;11041;50.854;20.580;2022-11-27T09:53:44;100068.16;;;1.52;91.09
21760;BME280;11041;50.854;20.580;2022-11-27T09:56:16;100066.47;;;1.51;91.44
21760;BME280;11041;50.854;20.580;2022-11-27T09:58:56;100067.69;;;1.55;91.08
21760;BME280;11041;50.854;20.580;2022-11-27T10:01:28;100063.09;;;1.55;91.36
21760;BME280;11041;50.854;20.580;2022-11-27T10:03:55;100064.81;;;1.49;91.56
21760;BME280;11041;50.854;20.580;2022-11-27T10:12:19;100066.34;;;1.64;91.03
21760;BME280;11041;50.854;20.580;2022-11-27T10:17:43;100067.63;;;1.61;90.49
21760;BME280;11041;50.854;20.580;2022-11-27T10:20:32;100059.31;;;1.56;91.03
21760;BME280;11041;50.854;20.580;2022-11-27T10:25:57;100062.03;;;1.56;90.96
21760;BME280;11041;50.854;20.580;2022-11-27T10:29:10;100062.63;;;1.58;90.89
21760;BME280;11041;50.854;20.580;2022-11-27T10:32:21;100054.00;;;1.49;91.07
21760;BME280;11041;50.854;20.580;2022-11-27T10:37:25;100058.13;;;1.52;92.04
21760;BME280;11041;50.854;20.580;2022-11-27T10:40:02;100047.72;;;1.49;91.82
21760;BME280;11041;50.854;20.580;2022-11-27T10:42:56;100056.84;;;1.55;92.62
21760;BME280;11041;50.854;20.580;2022-11-27T10:45:45;100057.22;;;1.58;92.28
21760;BME280;11041;50.854;20.580;2022-11-27T10:48:14;100054.44;;;1.65;90.98
21760;BME280;11041;50.854;20.580;2022-11-27T10:50:42;100042.19;;;1.62;91.04
21760;BME280;11041;50.854;20.580;2022-11-27T10:53:34;100039.69;;;1.61;90.82
21760;BME280;11041;50.854;20.580;2022-11-27T10:56:23;100034.13;;;1.56;91.62
21760;BME280;11041;50.854;20.580;2022-11-27T10:59:05;100036.47;;;1.52;91.79
21760;BME280;11041;50.854;20.580;2022-11-27T11:01:47;100035.78;;;1.57;92.19
21760;BME280;11041;50.854;20.580;2022-11-27T11:04:33;100029.91;;;1.60;92.43
21760;BME280;11041;50.854;20.580;2022-11-27T11:07:00;100026.75;;;1.63;92.55
21760;BME280;11041;50.854;20.580;2022-11-27T11:09:31;100030.44;;;1.68;92.56
21760;BME280;11041;50.854;20.580;2022-11-27T11:12:18;100027.75;;;1.68;91.90
21760;BME280;11041;50.854;20.580;2022-11-27T11:14:56;100023.16;;;1.69;91.96
21760;BME280;11041;50.854;20.580;2022-11-27T11:17:32;100033.53;;;1.72;91.57
21760;BME280;11041;50.854;20.580;2022-11-27T11:20:21;100025.25;;;1.67;91.41
21760;BME280;11041;50.854;20.580;2022-11-27T11:22:49;100027.50;;;1.70;91.52
21760;BME280;11041;50.854;20.580;2022-11-27T11:25:18;100025.03;;;1.68;91.06
21760;BME280;11041;50.854;20.580;2022-11-27T11:27:48;100027.03;;;1.73;90.75
21760;BME280;11041;50.854;20.580;2022-11-27T11:30:27;100027.75;;;1.68;90.36
21760;BME280;11041;50.854;20.580;2022-11-27T11:33:02;100020.88;;;1.66;90.61
21760;BME280;11041;50.854;20.580;2022-11-27T11:35:40;100023.56;;;1.66;91.27
21760;BME280;11041;50.854;20.580;2022-11-27T11:38:31;100014.25;;;1.62;91.91
21760;BME280;11041;50.854;20.580;2022-11-27T11:41:06;100023.44;;;1.61;92.04
21760;BME280;11041;50.854;20.580;2022-11-27T11:43:35;100028.41;;;1.64;92.79
21760;BME280;11041;50.854;20.580;2022-11-27T11:46:25;100017.13;;;1.67;92.11
21760;BME280;11041;50.854;20.580;2022-11-27T11:51:47;100029.94;;;1.78;92.51
21760;BME280;11041;50.854;20.580;2022-11-27T11:55:06;100023.22;;;1.81;92.22
21760;BME280;11041;50.854;20.580;2022-11-27T12:01:14;100009.88;;;1.79;92.32
21760;BME280;11041;50.854;20.580;2022-11-27T12:22:47;100012.06;;;2.07;92.21
21760;BME280;11041;50.854;20.580;2022-11-27T12:29:15;100007.38;;;2.15;92.42
21760;BME280;11041;50.854;20.580;2022-11-27T12:47:43;99985.34;;;2.23;92.10
21760;BME280;11041;50.854;20.580;2022-11-27T12:50:50;99987.84;;;2.24;91.55
21760;BME280;11041;50.854;20.580;2022-11-27T12:56:25;99987.22;;;2.22;91.96
21760;BME280;11041;50.854;20.580;2022-11-27T13:01:45;99990.75;;;2.23;91.52
21760;BME280;11041;50.854;20.580;2022-11-27T13:04:25;99984.88;;;2.26;91.73
21760;BME280;11041;50.854;20.580;2022-11-27T13:12:35;99974.63;;;2.28;92.23
21760;BME280;11041;50.854;20.580;2022-11-27T13:15:29;99963.78;;;2.28;92.03
21760;BME280;11041;50.854;20.580;2022-11-27T13:20:52;99962.47;;;2.30;91.37
21760;BME280;11041;50.854;20.580;2022-11-27T13:23:20;99961.75;;;2.23;91.38
21760;BME280;11041;50.854;20.580;2022-11-27T13:25:53;99962.13;;;2.27;91.36
21760;BME280;11041;50.854;20.580;2022-11-27T13:28:46;99970.03;;;2.28;91.49
21760;BME280;11041;50.854;20.580;2022-11-27T13:31:28;99956.31;;;2.23;91.70
21760;BME280;11041;50.854;20.580;2022-11-27T13:34:04;99967.56;;;2.27;91.70
21760;BME280;11041;50.854;20.580;2022-11-27T13:36:42;99962.13;;;2.27;91.67
21760;BME280;11041;50.854;20.580;2022-11-27T13:39:34;99967.19;;;2.23;91.49
21760;BME280;11041;50.854;20.580;2022-11-27T13:42:35;99956.19;;;2.18;91.76
21760;BME280;11041;50.854;20.580;2022-11-27T13:46:16;99966.56;;;2.21;91.79
21760;BME280;11041;50.854;20.580;2022-11-27T13:49:07;99950.44;;;2.15;91.28
21760;BME280;11041;50.854;20.580;2022-11-27T13:51:37;99956.53;;;2.10;91.98
21760;BME280;11041;50.854;20.580;2022-11-27T13:54:17;99961.50;;;2.13;92.13
21760;BME280;11041;50.854;20.580;2022-11-27T13:56:45;99963.72;;;2.16;91.65
21760;BME280;11041;50.854;20.580;2022-11-27T13:59:24;99969.75;;;2.18;91.40
21760;BME280;11041;50.854;20.580;2022-11-27T14:02:06;99974.38;;;2.18;91.74
21760;BME280;11041;50.854;20.580;2022-11-27T14:04:33;99971.44;;;2.19;91.62
21760;BME280;11041;50.854;20.580;2022-11-27T14:07:06;99967.88;;;2.19;91.22
21760;BME280;11041;50.854;20.580;2022-11-27T14:09:50;99967.66;;;2.20;91.47
21760;BME280;11041;50.854;20.580;2022-11-27T14:12:29;99956.66;;;2.15;91.43
21760;BME280;11041;50.854;20.580;2022-11-27T14:15:19;99957.50;;;2.16;91.56
21760;BME280;11041;50.854;20.580;2022-11-27T14:17:51;99966.44;;;2.16;91.38
21760;BME280;11041;50.854;20.580;2022-11-27T14:20:30;99967.97;;;2.12;91.19
21760;BME280;11041;50.854;20.580;2022-11-27T14:22:59;99974.09;;;2.07;91.30
21760;BME280;11041;50.854;20.580;2022-11-27T14:25:31;99954.13;;;2.02;91.32
21760;BME280;11041;50.854;20.580;2022-11-27T14:28:21;99960.22;;;1.97;91.73
21760;BME280;11041;50.854;20.580;2022-11-27T14:30:58;99968.38;;;1.97;92.07
21760;BME280;11041;50.854;20.580;2022-11-27T14:33:32;99970.25;;;1.97;91.90
21760;BME280;11041;50.854;20.580;2022-11-27T14:36:06;99955.38;;;1.87;91.47
21760;BME280;11041;50.854;20.580;2022-11-27T14:38:34;99966.13;;;1.94;92.09
21760;BME280;11041;50.854;20.580;2022-11-27T14:41:09;99964.91;;;1.90;91.55
21760;BME280;11041;50.854;20.580;2022-11-27T14:43:35;99955.81;;;1.84;91.25